createdAt,value
2023-09-20T00:00:00.323Z,100052.02
2023-09-20T00:01:03.365Z,100049.47
2023-09-20T00:02:05.447Z,100047.64
2023-09-20T00:03:07.545Z,100049.34
2023-09-20T00:04:09.586Z,100050.48
2023-09-20T00:05:11.746Z,100044.41
2023-09-20T00:06:13.911Z,100048.79
2023-09-20T00:07:15.867Z,100050.48
2023-09-20T00:08:17.991Z,100050.79
2023-09-20T00:09:19.836Z,100052.45
2023-09-20T00:10:22.914Z,100046.27
2023-09-20T00:11:25.026Z,100046.95
2023-09-20T00:12:27.144Z,100052.32
2023-09-20T00:13:29.009Z,100055.98
2023-09-20T00:14:31.267Z,100054.16
2023-09-20T00:15:33.302Z,100053.30
2023-09-20T00:16:35.403Z,100057.00
2023-09-20T00:17:37.976Z,100055.98
2023-09-20T00:18:40.409Z,100052.62
2023-09-20T00:19:42.661Z,100058.97
2023-09-20T00:20:44.771Z,100065.48
2023-09-20T00:21:46.790Z,100059.61
2023-09-20T00:22:48.730Z,100057.91
2023-09-20T00:23:50.817Z,100067.10
2023-09-20T00:24:52.765Z,100069.78
2023-09-20T00:25:54.841Z,100063.73
2023-09-20T00:26:56.914Z,100068.38
2023-09-20T00:27:59.017Z,100064.72
2023-09-20T00:29:01.216Z,100067.40
2023-09-20T00:30:03.718Z,100069.23
2023-09-20T00:31:05.831Z,100060.34
2023-09-20T00:32:07.904Z,100072.77
2023-09-20T00:33:10.060Z,100069.23
2023-09-20T00:34:12.067Z,100067.40
2023-09-20T00:35:15.152Z,100074.59
2023-09-20T00:36:20.166Z,100067.70
2023-09-20T00:37:22.216Z,100071.53
2023-09-20T00:38:24.343Z,100074.37
2023-09-20T00:39:26.469Z,100078.89
2023-09-20T00:40:28.875Z,100068.45
2023-09-20T00:41:31.920Z,100068.45
2023-09-20T00:42:34.097Z,100064.08
2023-09-20T00:43:36.119Z,100072.97
2023-09-20T00:44:38.006Z,100068.59
2023-09-20T00:45:40.644Z,100075.09
2023-09-20T00:46:43.040Z,100068.03
2023-09-20T00:47:48.338Z,100075.23
2023-09-20T00:48:50.996Z,100075.36
2023-09-20T00:49:53.414Z,100068.16
2023-09-20T00:50:55.558Z,100062.97
2023-09-20T00:51:57.539Z,100077.22
2023-09-20T00:52:59.976Z,100081.44
2023-09-20T00:54:02.093Z,100074.25
2023-09-20T00:55:04.512Z,100074.11
2023-09-20T00:56:07.416Z,100074.97
2023-09-20T00:57:10.397Z,100072.97
2023-09-20T00:58:16.526Z,100074.80
2023-09-20T00:59:19.269Z,100077.65
2023-09-20T01:00:21.484Z,100083.70
2023-09-20T01:01:25.566Z,100082.72
2023-09-20T01:02:27.649Z,100076.34
2023-09-20T01:03:32.594Z,100083.23
2023-09-20T01:04:34.839Z,100078.72
2023-09-20T01:05:38.768Z,100076.72
2023-09-20T01:06:41.833Z,100073.06
2023-09-20T01:07:44.067Z,100074.77
2023-09-20T01:08:46.066Z,100079.11
2023-09-20T01:09:48.000Z,100078.98
2023-09-20T01:10:50.181Z,100078.81
2023-09-20T01:11:52.355Z,100077.83
2023-09-20T01:12:57.141Z,100080.22
2023-09-20T01:13:59.289Z,100083.58
2023-09-20T01:15:01.287Z,100085.41
2023-09-20T01:16:03.385Z,100079.92
2023-09-20T01:17:08.790Z,100081.45
2023-09-20T01:18:11.014Z,100083.12
2023-09-20T01:19:13.226Z,100085.66
2023-09-20T01:20:15.560Z,100083.67
2023-09-20T01:21:17.673Z,100089.03
2023-09-20T01:22:19.772Z,100084.35
2023-09-20T01:23:21.931Z,100086.90
2023-09-20T01:24:24.447Z,100083.20
2023-09-20T01:25:29.240Z,100087.59
2023-09-20T01:26:31.737Z,100084.73
2023-09-20T01:27:34.683Z,100096.19
2023-09-20T01:28:36.878Z,100091.50
2023-09-20T01:29:38.827Z,100093.20
2023-09-20T01:30:42.261Z,100093.03
2023-09-20T01:31:44.476Z,100096.56
2023-09-20T01:32:46.568Z,100083.83
2023-09-20T01:33:48.793Z,100088.22
2023-09-20T01:34:50.972Z,100091.58
2023-09-20T01:35:53.057Z,100102.16
2023-09-20T01:36:55.128Z,100097.63
2023-09-20T01:37:57.653Z,100095.12
2023-09-20T01:38:59.613Z,100091.58
2023-09-20T01:40:01.718Z,100098.65
2023-09-20T01:41:03.786Z,100092.27
2023-09-20T01:42:05.846Z,100089.58
2023-09-20T01:43:07.922Z,100093.97
2023-09-20T01:44:09.924Z,100093.12
2023-09-20T01:45:12.397Z,100093.97
2023-09-20T01:46:14.973Z,100089.58
2023-09-20T01:47:16.965Z,100094.95
2023-09-20T01:48:19.213Z,100093.97
2023-09-20T01:49:21.570Z,100094.81
2023-09-20T01:50:24.601Z,100087.61
2023-09-20T01:51:26.612Z,100085.91
2023-09-20T01:52:28.696Z,100087.61
2023-09-20T01:53:30.839Z,100089.28
2023-09-20T01:54:33.206Z,100089.28
2023-09-20T01:55:35.446Z,100086.59
2023-09-20T01:56:38.320Z,100082.92
2023-09-20T01:57:40.403Z,100087.28
2023-09-20T01:58:42.992Z,100088.13
2023-09-20T01:59:45.034Z,100081.91
2023-09-20T02:00:47.225Z,100088.98
2023-09-20T02:01:49.464Z,100082.62
2023-09-20T02:04:02.505Z,100081.55
2023-09-20T02:05:05.660Z,100081.09
2023-09-20T02:06:08.131Z,100083.77
2023-09-20T02:07:10.286Z,100081.91
2023-09-20T02:08:12.493Z,100082.92
2023-09-20T02:09:14.664Z,100083.61
2023-09-20T02:10:18.138Z,100084.45
2023-09-20T02:11:20.498Z,100085.31
2023-09-20T02:12:22.718Z,100084.45
2023-09-20T02:13:24.874Z,100084.29
2023-09-20T02:14:27.785Z,100092.34
2023-09-20T02:15:31.439Z,100087.99
2023-09-20T02:16:33.733Z,100094.05
2023-09-20T02:17:36.089Z,100099.24
2023-09-20T02:18:38.501Z,100086.67
2023-09-20T02:19:40.757Z,100091.05
2023-09-20T02:20:43.551Z,100092.59
2023-09-20T02:21:46.331Z,100088.91
2023-09-20T02:22:50.656Z,100090.59
2023-09-20T02:23:54.329Z,100089.59
2023-09-20T02:24:56.694Z,100086.75
2023-09-20T02:26:00.839Z,100092.11
2023-09-20T02:27:03.566Z,100091.27
2023-09-20T02:28:06.244Z,100092.96
2023-09-20T02:29:08.458Z,100101.02
2023-09-20T02:30:12.195Z,100092.96
2023-09-20T02:31:14.444Z,100093.81
2023-09-20T02:32:16.653Z,100096.50
2023-09-20T02:33:19.098Z,100090.28
2023-09-20T02:34:21.332Z,100098.20
2023-09-20T02:35:24.553Z,100091.98
2023-09-20T02:36:26.979Z,100095.52
2023-09-20T02:37:29.548Z,100094.50
2023-09-20T02:38:32.049Z,100099.86
2023-09-20T02:39:34.200Z,100089.98
2023-09-20T02:40:38.122Z,100096.19
2023-09-20T02:41:41.408Z,100089.80
2023-09-20T02:42:46.584Z,100094.36
2023-09-20T02:43:48.955Z,100096.88
2023-09-20T02:44:51.198Z,100093.20
2023-09-20T02:45:53.389Z,100092.19
2023-09-20T02:46:55.576Z,100093.89
2023-09-20T02:47:58.073Z,100090.22
2023-09-20T02:49:00.249Z,100082.16
2023-09-20T02:50:02.516Z,100079.47
2023-09-20T02:51:04.654Z,100085.52
2023-09-20T02:52:06.939Z,100088.21
2023-09-20T02:53:09.198Z,100081.98
2023-09-20T02:54:11.334Z,100082.84
2023-09-20T02:55:14.871Z,100084.50
2023-09-20T02:56:17.567Z,100086.20
2023-09-20T02:57:19.759Z,100087.91
2023-09-20T02:58:21.806Z,100085.05
2023-09-20T02:59:23.972Z,100079.00
2023-09-20T03:00:28.173Z,100080.70
2023-09-20T03:01:30.772Z,100083.21
2023-09-20T03:02:33.339Z,100083.21
2023-09-20T03:03:35.658Z,100087.59
2023-09-20T03:04:38.132Z,100088.59
2023-09-20T03:05:40.474Z,100083.89
2023-09-20T03:06:42.954Z,100074.98
2023-09-20T03:07:46.511Z,100083.89
2023-09-20T03:08:48.852Z,100082.73
2023-09-20T03:09:50.967Z,100081.75
2023-09-20T03:10:53.533Z,100085.28
2023-09-20T03:11:55.800Z,100083.45
2023-09-20T03:12:58.568Z,100081.44
2023-09-20T03:14:02.079Z,100083.28
2023-09-20T03:15:04.935Z,100085.97
2023-09-20T03:16:07.858Z,100083.11
2023-09-20T03:17:11.918Z,100084.70
2023-09-20T03:18:16.182Z,100076.64
2023-09-20T03:19:20.521Z,100082.97
2023-09-20T03:20:25.658Z,100082.83
2023-09-20T03:21:32.525Z,100082.02
2023-09-20T03:22:34.740Z,100083.68
2023-09-20T03:23:37.453Z,100081.84
2023-09-20T03:24:40.726Z,100078.98
2023-09-20T03:25:42.890Z,100086.06
2023-09-20T03:26:47.200Z,100083.38
2023-09-20T03:27:50.381Z,100079.84
2023-09-20T03:28:52.631Z,100082.38
2023-09-20T03:29:55.302Z,100079.53
2023-09-20T03:30:58.041Z,100075.00
2023-09-20T03:32:01.602Z,100088.13
2023-09-20T03:33:06.659Z,100075.69
2023-09-20T03:34:09.266Z,100074.70
2023-09-20T03:35:14.035Z,100076.39
2023-09-20T03:36:18.177Z,100068.16
2023-09-20T03:37:22.591Z,100078.06
2023-09-20T03:38:25.388Z,100074.38
2023-09-20T03:39:28.140Z,100079.75
2023-09-20T03:40:31.432Z,100073.53
2023-09-20T03:41:35.590Z,100073.36
2023-09-20T03:42:39.992Z,100070.67
2023-09-20T03:43:42.095Z,100077.07
2023-09-20T03:44:44.625Z,100078.73
2023-09-20T03:45:47.168Z,100075.06
2023-09-20T03:46:50.368Z,100068.84
2023-09-20T03:47:54.283Z,100072.38
2023-09-20T03:48:57.358Z,100073.53
2023-09-20T03:50:00.327Z,100077.20
2023-09-20T03:51:04.068Z,100076.53
2023-09-20T03:52:07.254Z,100079.22
2023-09-20T03:53:09.971Z,100076.53
2023-09-20T03:54:12.186Z,100074.70
2023-09-20T03:55:15.040Z,100077.52
2023-09-20T03:56:17.280Z,100078.54
2023-09-20T03:57:19.478Z,100075.00
2023-09-20T03:58:21.673Z,100075.00
2023-09-20T03:59:23.997Z,100078.84
2023-09-20T04:00:26.419Z,100082.52
2023-09-20T04:01:28.513Z,100078.31
2023-09-20T04:02:30.679Z,100072.09
2023-09-20T04:03:33.400Z,100079.33
2023-09-20T04:04:35.786Z,100077.59
2023-09-20T04:05:45.059Z,100076.92
2023-09-20T04:06:42.062Z,100079.60
2023-09-20T04:07:44.210Z,100077.73
2023-09-20T04:08:46.875Z,100076.20
2023-09-20T04:09:49.133Z,100080.59
2023-09-20T04:10:51.363Z,100084.13
2023-09-20T04:11:53.404Z,100084.98
2023-09-20T04:12:55.784Z,100080.59
2023-09-20T04:13:58.053Z,100085.97
2023-09-20T04:15:00.211Z,100087.80
2023-09-20T04:16:02.363Z,100086.13
2023-09-20T04:17:04.597Z,100083.28
2023-09-20T04:18:06.906Z,100083.59
2023-09-20T04:19:09.173Z,100084.44
2023-09-20T04:20:12.179Z,100083.45
2023-09-20T04:21:15.031Z,100082.59
2023-09-20T04:22:17.413Z,100089.80
2023-09-20T04:23:19.689Z,100083.59
2023-09-20T04:24:22.314Z,100077.36
2023-09-20T04:25:24.719Z,100089.98
2023-09-20T04:26:27.200Z,100089.98
2023-09-20T04:27:29.596Z,100089.80
2023-09-20T04:28:32.990Z,100087.29
2023-09-20T04:29:35.378Z,100084.61
2023-09-20T04:30:37.610Z,100090.28
2023-09-20T04:31:40.105Z,100084.20
2023-09-20T04:32:44.247Z,100089.73
2023-09-20T04:33:57.394Z,100091.58
2023-09-20T04:34:59.679Z,100088.52
2023-09-20T04:36:01.769Z,100091.81
2023-09-20T04:37:05.047Z,100087.59
2023-09-20T04:38:08.146Z,100091.44
2023-09-20T04:39:12.480Z,100088.50
2023-09-20T04:40:14.865Z,100079.09
2023-09-20T04:41:18.716Z,100084.59
2023-09-20T04:42:21.616Z,100090.43
2023-09-20T04:43:24.085Z,100086.22
2023-09-20T04:44:26.880Z,100094.44
2023-09-20T04:45:29.623Z,100093.88
2023-09-20T04:46:33.114Z,100086.30
2023-09-20T04:47:35.743Z,100089.97
2023-09-20T04:48:38.112Z,100087.59
2023-09-20T04:49:40.320Z,100093.12
2023-09-20T04:50:44.158Z,100088.05
2023-09-20T04:51:46.474Z,100086.35
2023-09-20T04:53:08.511Z,100085.50
2023-09-20T04:54:10.712Z,100085.66
2023-09-20T04:55:13.121Z,100089.33
2023-09-20T04:56:15.784Z,100083.12
2023-09-20T04:57:18.053Z,100092.31
2023-09-20T04:58:20.398Z,100090.64
2023-09-20T04:59:23.416Z,100084.56
2023-09-20T05:00:25.923Z,100085.41
2023-09-20T05:01:28.983Z,100084.73
2023-09-20T05:02:31.597Z,100083.88
2023-09-20T05:03:34.131Z,100089.25
2023-09-20T05:04:36.656Z,100089.41
2023-09-20T05:05:38.922Z,100088.56
2023-09-20T05:06:42.213Z,100091.24
2023-09-20T05:07:44.912Z,100091.24
2023-09-20T05:08:47.780Z,100095.76
2023-09-20T05:09:49.974Z,100097.75
2023-09-20T05:12:04.025Z,100094.86
2023-09-20T05:13:06.802Z,100097.03
2023-09-20T05:14:09.176Z,100090.98
2023-09-20T05:15:12.544Z,100090.14
2023-09-20T05:16:14.829Z,100086.47
2023-09-20T05:17:18.376Z,100092.69
2023-09-20T05:18:20.716Z,100090.86
2023-09-20T05:19:23.339Z,100096.05
2023-09-20T05:20:25.834Z,100091.37
2023-09-20T05:21:28.160Z,100091.24
2023-09-20T05:22:30.512Z,100090.55
2023-09-20T05:23:33.054Z,100083.49
2023-09-20T05:24:35.676Z,100094.91
2023-09-20T05:25:38.474Z,100090.23
2023-09-20T05:26:41.010Z,100093.63
2023-09-20T05:27:43.239Z,100085.28
2023-09-20T05:28:45.757Z,100092.02
2023-09-20T05:29:47.974Z,100098.06
2023-09-20T05:30:50.384Z,100090.02
2023-09-20T05:31:52.706Z,100091.88
2023-09-20T05:32:55.017Z,100103.44
2023-09-20T05:33:57.390Z,100094.56
2023-09-20T05:34:59.586Z,100092.87
2023-09-20T05:36:01.952Z,100090.34
2023-09-20T05:37:04.170Z,100093.03
2023-09-20T05:39:21.345Z,100096.56
2023-09-20T05:40:23.727Z,100095.25
2023-09-20T05:41:25.950Z,100098.78
2023-09-20T05:42:28.230Z,100097.77
2023-09-20T05:43:30.553Z,100101.98
2023-09-20T05:44:33.212Z,100101.69
2023-09-20T05:45:36.000Z,100098.16
2023-09-20T05:46:38.435Z,100100.02
2023-09-20T05:47:41.827Z,100099.17
2023-09-20T05:48:49.670Z,100096.19
2023-09-20T05:49:51.381Z,100088.81
2023-09-20T05:50:53.672Z,100093.33
2023-09-20T05:51:56.343Z,100089.37
2023-09-20T05:52:58.579Z,100092.05
2023-09-20T05:54:01.153Z,100097.11
2023-09-20T05:55:03.928Z,100088.90
2023-09-20T05:56:06.986Z,100093.58
2023-09-20T05:57:09.485Z,100083.70
2023-09-20T05:58:11.794Z,100083.83
2023-09-20T05:59:16.014Z,100088.35
2023-09-20T06:00:18.315Z,100092.56
2023-09-20T06:01:20.662Z,100088.22
2023-09-20T06:02:23.169Z,100086.52
2023-09-20T06:03:25.385Z,100092.73
2023-09-20T06:04:27.634Z,100090.05
2023-09-20T06:05:32.348Z,100094.87
2023-09-20T06:06:34.675Z,100090.35
2023-09-20T06:07:36.827Z,100096.70
2023-09-20T06:08:38.996Z,100099.72
2023-09-20T06:09:41.389Z,100100.70
2023-09-20T06:10:43.868Z,100104.23
2023-09-20T06:11:46.216Z,100104.37
2023-09-20T06:12:48.608Z,100097.47
2023-09-20T06:13:50.838Z,100106.07
2023-09-20T06:14:52.982Z,100098.70
2023-09-20T06:15:55.144Z,100104.92
2023-09-20T06:16:57.776Z,100094.19
2023-09-20T06:18:00.069Z,100094.87
2023-09-20T06:19:06.893Z,100093.72
2023-09-20T06:20:07.582Z,100095.55
2023-09-20T06:21:09.872Z,100090.73
2023-09-20T06:22:12.290Z,100097.63
2023-09-20T06:23:14.494Z,100104.53
2023-09-20T06:24:16.633Z,100109.09
2023-09-20T06:25:19.054Z,100111.77
2023-09-20T06:26:21.260Z,100100.02
2023-09-20T06:27:23.601Z,100113.44
2023-09-20T06:28:25.949Z,100109.77
2023-09-20T06:29:28.337Z,100108.75
2023-09-20T06:30:30.787Z,100116.67
2023-09-20T06:31:33.084Z,100119.19
2023-09-20T06:32:35.534Z,100112.66
2023-09-20T06:33:37.802Z,100119.43
2023-09-20T06:34:49.611Z,100112.06
2023-09-20T06:35:43.933Z,100118.28
2023-09-20T06:36:46.173Z,100120.80
2023-09-20T06:37:48.345Z,100120.66
2023-09-20T06:38:50.622Z,100126.58
2023-09-20T06:39:52.852Z,100128.24
2023-09-20T06:40:55.235Z,100127.94
2023-09-20T06:41:57.484Z,100132.16
2023-09-20T06:42:59.834Z,100134.54
2023-09-20T06:44:01.961Z,100133.25
2023-09-20T06:45:05.281Z,100137.60
2023-09-20T06:46:08.725Z,100141.98
2023-09-20T06:47:10.934Z,100135.63
2023-09-20T06:48:13.118Z,100133.62
2023-09-20T06:49:15.860Z,100135.16
2023-09-20T06:50:18.105Z,100142.77
2023-09-20T06:51:20.688Z,100148.69
2023-09-20T06:52:22.842Z,100144.67
2023-09-20T06:53:25.489Z,100145.08
2023-09-20T06:54:31.076Z,100146.61
2023-09-20T06:55:33.626Z,100146.81
2023-09-20T06:56:36.299Z,100139.30
2023-09-20T06:57:38.542Z,100141.67
2023-09-20T06:58:41.772Z,100143.20
2023-09-20T06:59:46.013Z,100144.56
2023-09-20T07:00:48.756Z,100142.72
2023-09-20T07:01:50.971Z,100135.20
2023-09-20T07:02:55.034Z,100141.79
2023-09-20T07:03:57.670Z,100138.62
2023-09-20T07:04:59.771Z,100134.77
2023-09-20T07:06:02.062Z,100136.16
2023-09-20T07:07:04.313Z,100143.05
2023-09-20T07:08:06.640Z,100140.19
2023-09-20T07:09:09.036Z,100141.05
2023-09-20T07:10:11.389Z,100148.80
2023-09-20T07:11:13.622Z,100143.10
2023-09-20T07:12:15.929Z,100142.25
2023-09-20T07:13:18.182Z,100150.18
2023-09-20T07:14:20.628Z,100145.62
2023-09-20T07:15:23.219Z,100144.31
2023-09-20T07:16:25.589Z,100146.83
2023-09-20T07:17:28.112Z,100152.74
2023-09-20T07:18:30.361Z,100141.84
2023-09-20T07:19:32.673Z,100149.73
2023-09-20T07:20:34.929Z,100142.34
2023-09-20T07:21:37.399Z,100144.89
2023-09-20T07:22:39.641Z,100150.95
2023-09-20T07:23:41.829Z,100144.58
2023-09-20T07:24:44.056Z,100143.41
2023-09-20T07:25:46.216Z,100150.31
2023-09-20T07:26:48.445Z,100148.33
2023-09-20T07:27:51.274Z,100148.86
2023-09-20T07:28:53.506Z,100152.90
2023-09-20T07:29:55.771Z,100148.23
2023-09-20T07:30:58.024Z,100148.72
2023-09-20T07:32:00.152Z,100148.41
2023-09-20T07:33:11.798Z,100150.95
2023-09-20T07:34:06.385Z,100147.09
2023-09-20T07:35:09.237Z,100155.84
2023-09-20T07:36:14.542Z,100143.05
2023-09-20T07:37:15.862Z,100145.60
2023-09-20T07:38:18.784Z,100144.44
2023-09-20T07:39:21.542Z,100146.45
2023-09-20T07:40:28.815Z,100141.77
2023-09-20T07:41:31.107Z,100146.97
2023-09-20T07:42:33.362Z,100142.44
2023-09-20T07:43:35.901Z,100142.79
2023-09-20T07:44:38.186Z,100153.76
2023-09-20T07:45:40.526Z,100147.02
2023-09-20T07:46:42.696Z,100150.91
2023-09-20T07:47:45.032Z,100144.20
2023-09-20T07:48:47.272Z,100151.45
2023-09-20T07:49:49.340Z,100146.41
2023-09-20T07:50:51.773Z,100153.83
2023-09-20T07:51:53.876Z,100150.48
2023-09-20T07:52:56.958Z,100146.46
2023-09-20T07:53:59.211Z,100150.52
2023-09-20T07:55:01.404Z,100145.29
2023-09-20T07:56:04.757Z,100153.05
2023-09-20T07:57:07.040Z,100146.33
2023-09-20T07:58:09.144Z,100147.66
2023-09-20T07:59:11.260Z,100147.17
2023-09-20T08:00:14.165Z,100152.05
2023-09-20T08:01:16.480Z,100152.37
2023-09-20T08:02:18.647Z,100145.66
2023-09-20T08:03:21.065Z,100146.32
2023-09-20T08:04:23.404Z,100152.23
2023-09-20T08:05:25.827Z,100149.86
2023-09-20T08:06:29.915Z,100145.13
2023-09-20T08:07:32.177Z,100148.16
2023-09-20T08:08:34.578Z,100149.17
2023-09-20T08:09:36.799Z,100151.16
2023-09-20T08:10:39.176Z,100148.64
2023-09-20T08:11:41.357Z,100151.84
2023-09-20T08:12:43.639Z,100148.84
2023-09-20T08:13:45.840Z,100152.86
2023-09-20T08:14:48.031Z,100148.82
2023-09-20T08:15:50.147Z,100154.69
2023-09-20T08:17:55.793Z,100143.05
2023-09-20T08:18:58.086Z,100150.81
2023-09-20T08:20:00.425Z,100148.92
2023-09-20T08:21:02.799Z,100156.02
2023-09-20T08:22:05.157Z,100153.32
2023-09-20T08:23:07.358Z,100152.66
2023-09-20T08:24:09.838Z,100152.31
2023-09-20T08:25:12.526Z,100149.43
2023-09-20T08:26:15.455Z,100144.88
2023-09-20T08:27:17.604Z,100150.41
2023-09-20T08:28:19.853Z,100150.91
2023-09-20T08:29:22.058Z,100149.06
2023-09-20T08:30:24.781Z,100146.86
2023-09-20T08:31:26.961Z,100148.52
2023-09-20T08:32:29.124Z,100152.73
2023-09-20T08:33:31.428Z,100145.32
2023-09-20T08:34:33.661Z,100149.69
2023-09-20T08:35:35.780Z,100149.69
2023-09-20T08:36:38.231Z,100144.97
2023-09-20T08:37:40.851Z,100155.39
2023-09-20T08:38:43.151Z,100141.73
2023-09-20T08:39:45.470Z,100149.48
2023-09-20T08:40:49.739Z,100148.95
2023-09-20T08:41:52.222Z,100142.20
2023-09-20T08:42:54.603Z,100146.21
2023-09-20T08:43:56.906Z,100139.61
2023-09-20T08:45:00.652Z,100139.92
2023-09-20T08:46:05.570Z,100144.81
2023-09-20T08:47:08.068Z,100140.75
2023-09-20T08:48:15.022Z,100149.55
2023-09-20T08:49:17.631Z,100144.80
2023-09-20T08:50:20.531Z,100151.20
2023-09-20T08:51:26.133Z,100146.30
2023-09-20T08:52:28.898Z,100145.45
2023-09-20T08:53:31.656Z,100143.76
2023-09-20T08:54:35.459Z,100143.76
2023-09-20T08:55:37.845Z,100149.00
2023-09-20T08:56:40.385Z,100149.66
2023-09-20T08:57:43.339Z,100151.00
2023-09-20T08:58:45.747Z,100155.20
2023-09-20T08:59:48.039Z,100143.00
2023-09-20T09:00:51.595Z,100148.70
2023-09-20T09:01:53.901Z,100141.73
2023-09-20T09:02:58.198Z,100142.88
2023-09-20T09:04:01.611Z,100143.56
2023-09-20T09:05:04.889Z,100142.53
2023-09-20T09:06:07.808Z,100143.86
2023-09-20T09:07:09.969Z,100143.67
2023-09-20T09:08:12.154Z,100148.23
2023-09-20T09:09:15.377Z,100145.17
2023-09-20T09:10:18.706Z,100147.88
2023-09-20T09:11:20.977Z,100149.56
2023-09-20T09:12:23.077Z,100142.30
2023-09-20T09:13:25.168Z,100145.85
2023-09-20T09:14:28.750Z,100149.20
2023-09-20T09:15:30.913Z,100137.35
2023-09-20T09:16:34.438Z,100138.69
2023-09-20T09:17:41.048Z,100138.49
2023-09-20T09:18:43.703Z,100132.27
2023-09-20T09:19:46.194Z,100142.23
2023-09-20T09:20:48.729Z,100130.58
2023-09-20T09:21:50.991Z,100138.49
2023-09-20T09:22:53.142Z,100134.97
2023-09-20T09:23:55.341Z,100141.19
2023-09-20T09:24:59.381Z,100144.74
2023-09-20T09:26:01.922Z,100141.39
2023-09-20T09:27:06.177Z,100135.13
2023-09-20T09:28:08.371Z,100152.40
2023-09-20T09:29:18.560Z,100148.84
2023-09-20T09:30:21.696Z,100144.45
2023-09-20T09:31:24.155Z,100148.66
2023-09-20T09:32:26.712Z,100149.30
2023-09-20T09:33:29.475Z,100146.60
2023-09-20T09:34:32.118Z,100148.09
2023-09-20T09:35:46.945Z,100142.33
2023-09-20T09:36:38.833Z,100146.73
2023-09-20T09:37:40.995Z,100158.55
2023-09-20T09:38:43.389Z,100146.44
2023-09-20T09:40:00.409Z,100153.22
2023-09-20T09:41:03.250Z,100165.43
2023-09-20T09:42:05.510Z,100149.92
2023-09-20T09:43:14.009Z,100147.41
2023-09-20T09:44:16.315Z,100151.12
2023-09-20T09:46:42.498Z,100156.11
2023-09-20T09:47:45.130Z,100153.18
2023-09-20T09:48:47.543Z,100148.42
2023-09-20T09:49:54.400Z,100148.06
2023-09-20T09:50:58.824Z,100152.76
2023-09-20T09:52:03.667Z,100151.20
2023-09-20T09:53:07.286Z,100152.70
2023-09-20T09:54:12.083Z,100150.80
2023-09-20T09:55:16.350Z,100154.36
2023-09-20T09:56:19.060Z,100150.45
2023-09-20T09:57:22.217Z,100141.13
2023-09-20T09:58:24.576Z,100151.12
2023-09-20T09:59:27.053Z,100151.94
2023-09-20T10:00:30.268Z,100145.36
2023-09-20T10:01:36.695Z,100139.75
2023-09-20T10:02:42.475Z,100144.31
2023-09-20T10:03:48.728Z,100150.38
2023-09-20T10:04:56.143Z,100150.38
2023-09-20T10:06:04.106Z,100152.07
2023-09-20T10:07:08.922Z,100146.66
2023-09-20T10:08:14.052Z,100143.76
2023-09-20T10:09:18.616Z,100146.30
2023-09-20T10:10:22.099Z,100145.13
2023-09-20T10:11:28.059Z,100144.56
2023-09-20T10:12:32.445Z,100140.65
2023-09-20T10:13:39.068Z,100135.72
2023-09-20T10:14:41.548Z,100143.28
2023-09-20T10:15:44.218Z,100143.77
2023-09-20T10:16:48.038Z,100142.38
2023-09-20T10:17:55.655Z,100141.82
2023-09-20T10:19:01.306Z,100141.09
2023-09-20T10:20:06.795Z,100139.88
2023-09-20T10:21:09.781Z,100142.86
2023-09-20T10:22:12.543Z,100133.36
2023-09-20T10:23:16.573Z,100136.99
2023-09-20T10:24:22.580Z,100128.67
2023-09-20T10:25:34.999Z,100128.13
2023-09-20T10:26:39.180Z,100130.47
2023-09-20T10:27:41.429Z,100134.09
2023-09-20T10:28:46.926Z,100129.16
2023-09-20T10:30:06.683Z,100134.37
2023-09-20T10:31:17.449Z,100130.30
2023-09-20T10:32:20.012Z,100132.64
2023-09-20T10:33:39.361Z,100125.63
2023-09-20T10:34:43.674Z,100125.90
2023-09-20T10:35:46.518Z,100132.23
2023-09-20T10:36:52.915Z,100135.03
2023-09-20T10:38:10.742Z,100131.74
2023-09-20T10:39:21.575Z,100133.88
2023-09-20T10:40:23.842Z,100127.05
2023-09-20T10:41:29.908Z,100133.78
2023-09-20T10:42:32.248Z,100127.14
2023-09-20T10:43:41.222Z,100126.09
2023-09-20T10:44:44.434Z,100125.92
2023-09-20T10:45:55.527Z,100131.98
2023-09-20T10:46:59.414Z,100122.83
2023-09-20T10:48:03.377Z,100126.35
2023-09-20T10:49:05.775Z,100124.48
2023-09-20T10:50:08.727Z,100125.54
2023-09-20T10:51:11.170Z,100129.06
2023-09-20T10:52:13.378Z,100125.33
2023-09-20T10:53:18.907Z,100124.75
2023-09-20T10:54:24.046Z,100123.73
2023-09-20T10:55:34.381Z,100126.23
2023-09-20T10:56:55.534Z,100121.66
2023-09-20T10:58:00.152Z,100122.33
2023-09-20T10:59:05.364Z,100117.97
2023-09-20T11:00:08.836Z,100118.30
2023-09-20T11:01:11.707Z,100111.64
2023-09-20T11:02:15.104Z,100124.82
2023-09-20T11:03:19.020Z,100111.69
2023-09-20T11:04:21.574Z,100114.02
2023-09-20T11:05:24.581Z,100118.03
2023-09-20T11:06:27.186Z,100114.73
2023-09-20T11:07:30.268Z,100110.61
2023-09-20T11:08:32.591Z,100107.30
2023-09-20T11:09:35.236Z,100115.05
2023-09-20T11:10:39.198Z,100113.81
2023-09-20T11:11:42.687Z,100115.51
2023-09-20T11:12:45.007Z,100114.45
2023-09-20T11:13:49.663Z,100113.22
2023-09-20T11:14:51.939Z,100113.22
2023-09-20T11:15:55.752Z,100116.78
2023-09-20T11:16:58.135Z,100108.19
2023-09-20T11:18:00.421Z,100112.59
2023-09-20T11:19:02.714Z,100113.81
2023-09-20T11:20:07.751Z,100106.52
2023-09-20T11:21:10.194Z,100112.13
2023-09-20T11:22:14.794Z,100115.90
2023-09-20T11:23:17.490Z,100112.13
2023-09-20T11:24:20.012Z,100106.52
2023-09-20T11:25:22.301Z,100106.14
2023-09-20T11:26:28.288Z,100102.19
2023-09-20T11:27:31.023Z,100102.19
2023-09-20T11:28:33.739Z,100109.48
2023-09-20T11:29:36.676Z,100119.31
2023-09-20T11:30:39.218Z,100108.00
2023-09-20T11:31:43.716Z,100117.55
2023-09-20T11:32:45.954Z,100108.78
2023-09-20T11:33:52.019Z,100119.84
2023-09-20T11:34:54.301Z,100121.04
2023-09-20T11:35:57.067Z,100112.27
2023-09-20T11:37:00.686Z,100117.05
2023-09-20T11:38:04.073Z,100114.55
2023-09-20T11:39:06.446Z,100117.44
2023-09-20T11:40:09.378Z,100112.23
2023-09-20T11:41:11.524Z,100110.53
2023-09-20T11:42:24.706Z,100114.27
2023-09-20T11:43:28.679Z,100118.21
2023-09-20T11:44:35.668Z,100111.52
2023-09-20T11:46:41.911Z,100117.70
2023-09-20T11:47:44.752Z,100111.64
2023-09-20T11:48:49.191Z,100110.98
2023-09-20T11:49:51.467Z,100113.89
2023-09-20T11:50:54.568Z,100112.38
2023-09-20T11:51:57.213Z,100112.13
2023-09-20T11:52:59.306Z,100117.28
2023-09-20T11:54:06.600Z,100118.52
2023-09-20T11:55:13.833Z,100112.80
2023-09-20T11:56:27.284Z,100111.52
2023-09-20T11:57:30.748Z,100116.30
2023-09-20T11:58:33.417Z,100106.48
2023-09-20T11:59:42.226Z,100112.11
2023-09-20T12:00:45.517Z,100113.71
2023-09-20T12:01:47.744Z,100110.91
2023-09-20T12:02:50.664Z,100110.45
2023-09-20T12:03:53.434Z,100115.02
2023-09-20T12:04:55.965Z,100113.36
2023-09-20T12:05:59.991Z,100116.06
2023-09-20T12:07:02.432Z,100109.59